createdAt,value
2017-09-15T00:00:19.538Z,0
2017-09-15T00:01:00.104Z,0
2017-09-15T00:01:40.652Z,0
2017-09-15T00:02:21.211Z,0
2017-09-15T00:03:01.772Z,0
2017-09-15T00:03:42.314Z,0
2017-09-15T00:04:22.893Z,0
2017-09-15T00:05:03.470Z,0
2017-09-15T00:05:44.053Z,0
2017-09-15T00:06:25.302Z,0
2017-09-15T00:07:05.855Z,0
2017-09-15T00:07:46.457Z,0
2017-09-15T00:08:27.051Z,0
2017-09-15T00:09:07.632Z,0
2017-09-15T00:09:48.200Z,0
2017-09-15T00:10:28.762Z,0
2017-09-15T00:11:09.322Z,0
2017-09-15T00:11:49.897Z,0
2017-09-15T00:12:30.454Z,0
2017-09-15T00:13:11.031Z,0
2017-09-15T00:13:51.585Z,0
2017-09-15T00:14:32.157Z,0
2017-09-15T00:15:12.720Z,0
2017-09-15T00:15:53.278Z,0
2017-09-15T00:16:33.821Z,0
2017-09-15T00:17:14.393Z,0
2017-09-15T00:17:56.546Z,0
2017-09-15T00:18:36.253Z,0
2017-09-15T00:19:16.827Z,0
2017-09-15T00:19:57.385Z,0
2017-09-15T00:20:37.960Z,0
2017-09-15T00:21:18.550Z,0
2017-09-15T00:21:59.112Z,0
2017-09-15T00:22:39.665Z,0
2017-09-15T00:23:20.228Z,0
2017-09-15T00:24:00.779Z,0
2017-09-15T00:24:41.326Z,0
2017-09-15T00:25:21.883Z,0
2017-09-15T00:26:02.442Z,0
2017-09-15T00:26:43.008Z,0
2017-09-15T00:27:23.564Z,0
2017-09-15T00:28:04.163Z,0
2017-09-15T00:28:44.760Z,0
2017-09-15T00:29:25.398Z,0
2017-09-15T00:30:05.937Z,0
2017-09-15T00:30:46.503Z,0
2017-09-15T00:31:27.077Z,0
2017-09-15T00:32:07.649Z,0
2017-09-15T00:32:48.236Z,0
2017-09-15T00:33:28.781Z,0
2017-09-15T00:34:09.329Z,0
2017-09-15T00:34:49.887Z,0
2017-09-15T00:35:30.463Z,0
2017-09-15T00:36:11.022Z,0
2017-09-15T00:36:51.596Z,0
2017-09-15T00:37:32.154Z,0
2017-09-15T00:38:12.729Z,0
2017-09-15T00:38:53.297Z,0
2017-09-15T00:39:33.852Z,0
2017-09-15T00:40:14.442Z,0
2017-09-15T00:40:55.008Z,0
2017-09-15T00:41:35.579Z,0
2017-09-15T00:42:16.146Z,0
2017-09-15T00:42:56.716Z,0
2017-09-15T00:43:37.287Z,0
2017-09-15T00:44:17.851Z,0
2017-09-15T00:44:58.408Z,0
2017-09-15T00:45:38.974Z,0
2017-09-15T00:46:19.534Z,0
2017-09-15T00:47:00.102Z,0
2017-09-15T00:47:40.672Z,0
2017-09-15T00:48:21.238Z,0
2017-09-15T00:49:01.808Z,0
2017-09-15T00:49:42.372Z,0
2017-09-15T00:50:22.938Z,0
2017-09-15T00:51:03.511Z,0
2017-09-15T00:51:44.075Z,0
2017-09-15T00:52:24.654Z,0
2017-09-15T00:53:05.217Z,0
2017-09-15T00:53:45.793Z,0
2017-09-15T00:54:26.359Z,0
2017-09-15T00:55:06.943Z,0
2017-09-15T00:55:47.493Z,0
2017-09-15T00:56:28.047Z,0
2017-09-15T00:57:08.622Z,0
2017-09-15T00:57:49.181Z,0
2017-09-15T00:58:29.745Z,0
2017-09-15T00:59:10.312Z,0
2017-09-15T00:59:50.890Z,0
2017-09-15T01:00:31.453Z,0
2017-09-15T01:01:12.023Z,0
2017-09-15T01:01:52.597Z,0
2017-09-15T01:02:33.151Z,0
2017-09-15T01:03:13.707Z,0
2017-09-15T01:03:54.258Z,0
2017-09-15T01:04:34.826Z,0
2017-09-15T01:05:15.394Z,0
2017-09-15T01:05:55.945Z,0
2017-09-15T01:06:36.519Z,0
2017-09-15T01:07:17.082Z,0
2017-09-15T01:07:57.649Z,0
2017-09-15T01:08:38.215Z,0
2017-09-15T01:09:18.786Z,0
2017-09-15T01:09:59.362Z,0
2017-09-15T01:10:39.934Z,0
2017-09-15T01:11:20.505Z,0
2017-09-15T01:12:01.070Z,0
2017-09-15T01:12:41.628Z,0
2017-09-15T01:13:22.205Z,0
2017-09-15T01:14:02.765Z,0
2017-09-15T01:14:43.322Z,0
2017-09-15T01:15:23.881Z,0
2017-09-15T01:16:04.444Z,0
2017-09-15T01:16:45.001Z,0
2017-09-15T01:17:25.559Z,0
2017-09-15T01:18:06.154Z,0
2017-09-15T01:18:46.715Z,0
2017-09-15T01:19:27.274Z,0
2017-09-15T01:20:07.849Z,0
2017-09-15T01:20:48.407Z,0
2017-09-15T01:21:28.966Z,0
2017-09-15T01:22:09.536Z,0
2017-09-15T01:22:50.091Z,0
2017-09-15T01:23:30.646Z,0
2017-09-15T01:24:11.233Z,0
2017-09-15T01:24:51.801Z,0
2017-09-15T01:25:32.376Z,0
2017-09-15T01:26:12.932Z,0
2017-09-15T01:26:53.495Z,0
2017-09-15T01:27:34.047Z,0
2017-09-15T01:28:14.605Z,0
2017-09-15T01:28:55.159Z,0
2017-09-15T01:29:35.737Z,0
2017-09-15T01:30:16.307Z,0
2017-09-15T01:30:56.882Z,0
2017-09-15T01:31:37.454Z,0
2017-09-15T01:32:18.013Z,0
2017-09-15T01:32:58.588Z,0
2017-09-15T01:33:39.156Z,0
2017-09-15T01:34:19.716Z,0
2017-09-15T01:35:00.267Z,0
2017-09-15T01:35:40.825Z,0
2017-09-15T01:36:21.388Z,0
2017-09-15T01:37:01.939Z,0
2017-09-15T01:37:42.507Z,0
2017-09-15T01:38:23.075Z,0
2017-09-15T01:39:03.644Z,0
2017-09-15T01:39:44.203Z,0
2017-09-15T01:40:24.772Z,0
2017-09-15T01:41:05.348Z,0
2017-09-15T01:41:45.909Z,0
2017-09-15T01:42:26.484Z,0
2017-09-15T01:43:07.052Z,0
2017-09-15T01:43:47.619Z,0
2017-09-15T01:44:28.178Z,0
2017-09-15T01:45:08.748Z,0
2017-09-15T01:45:49.315Z,0
2017-09-15T01:46:29.878Z,0
2017-09-15T01:47:10.438Z,0
2017-09-15T01:47:50.996Z,0
2017-09-15T01:48:31.566Z,0
2017-09-15T01:49:12.129Z,0
2017-09-15T01:49:52.691Z,0
2017-09-15T01:50:33.258Z,0
2017-09-15T01:51:13.822Z,0
2017-09-15T01:51:54.391Z,0
2017-09-15T01:52:34.948Z,0
2017-09-15T01:53:15.515Z,0
2017-09-15T01:53:56.085Z,0
2017-09-15T01:54:36.644Z,0
2017-09-15T01:55:17.212Z,0
2017-09-15T01:55:57.783Z,0
2017-09-15T01:56:38.339Z,0
2017-09-15T01:57:18.899Z,0
2017-09-15T01:57:59.457Z,0
2017-09-15T01:58:40.031Z,0
2017-09-15T01:59:20.605Z,0
2017-09-15T02:00:01.190Z,0
2017-09-15T02:00:41.743Z,0
2017-09-15T02:01:22.306Z,0
2017-09-15T02:02:02.856Z,0
2017-09-15T02:02:43.421Z,0
2017-09-15T02:03:23.985Z,0
2017-09-15T02:04:04.548Z,0
2017-09-15T02:04:45.110Z,0
2017-09-15T02:05:25.668Z,0
2017-09-15T02:06:06.247Z,0
2017-09-15T02:06:46.808Z,0
2017-09-15T02:07:27.378Z,0
2017-09-15T02:08:07.946Z,0
2017-09-15T02:08:48.499Z,0
2017-09-15T02:09:29.048Z,0
2017-09-15T02:10:09.619Z,0
2017-09-15T02:10:50.185Z,0
2017-09-15T02:11:30.751Z,0
2017-09-15T02:12:11.312Z,0
2017-09-15T02:12:51.887Z,0
2017-09-15T02:13:32.439Z,0
2017-09-15T02:14:12.998Z,0
2017-09-15T02:14:53.557Z,0
2017-09-15T02:15:34.129Z,0
2017-09-15T02:16:14.674Z,0
2017-09-15T02:16:55.234Z,0
2017-09-15T02:17:35.788Z,0
2017-09-15T02:18:16.323Z,0
2017-09-15T02:18:56.880Z,0
2017-09-15T02:19:37.428Z,0
2017-09-15T02:20:17.975Z,0
2017-09-15T02:20:58.526Z,0
2017-09-15T02:21:39.093Z,0
2017-09-15T02:22:19.685Z,0
2017-09-15T02:23:00.244Z,0
2017-09-15T02:23:40.805Z,0
2017-09-15T02:24:21.367Z,0
2017-09-15T02:25:01.933Z,0
2017-09-15T02:25:42.492Z,0
2017-09-15T02:26:23.057Z,0
2017-09-15T02:27:03.613Z,0
2017-09-15T02:27:44.162Z,0
2017-09-15T02:28:24.732Z,0
2017-09-15T02:29:05.291Z,0
2017-09-15T02:29:45.862Z,0
2017-09-15T02:30:26.423Z,0
2017-09-15T02:31:06.993Z,0
2017-09-15T02:31:47.556Z,0
2017-09-15T02:32:28.106Z,0
2017-09-15T02:33:08.686Z,0
2017-09-15T02:33:49.245Z,0
2017-09-15T02:34:29.814Z,0
2017-09-15T02:35:10.375Z,0
2017-09-15T02:35:50.937Z,0
2017-09-15T02:36:31.499Z,0
2017-09-15T02:37:12.101Z,0
2017-09-15T02:37:52.629Z,0
2017-09-15T02:38:33.188Z,0
2017-09-15T02:39:13.754Z,0
2017-09-15T02:39:54.312Z,0
2017-09-15T02:40:34.863Z,0
2017-09-15T02:41:15.421Z,0
2017-09-15T02:41:55.987Z,0
2017-09-15T02:42:36.540Z,0
2017-09-15T02:43:17.107Z,0
2017-09-15T02:43:57.680Z,0
2017-09-15T02:44:38.238Z,0
2017-09-15T02:45:18.805Z,0
2017-09-15T02:45:59.360Z,0
2017-09-15T02:46:39.938Z,0
2017-09-15T02:47:20.482Z,0
2017-09-15T02:48:01.055Z,0
2017-09-15T02:48:41.608Z,0
2017-09-15T02:49:22.204Z,0
2017-09-15T02:50:02.761Z,0
2017-09-15T02:50:43.325Z,0
2017-09-15T02:51:23.887Z,0
2017-09-15T02:52:04.450Z,0
2017-09-15T02:52:45.010Z,0
2017-09-15T02:53:25.578Z,0
2017-09-15T02:54:06.142Z,0
2017-09-15T02:54:46.714Z,0
2017-09-15T02:55:27.275Z,0
2017-09-15T02:56:07.833Z,0
2017-09-15T02:56:48.390Z,0
2017-09-15T02:57:28.961Z,0
2017-09-15T02:58:09.511Z,0
2017-09-15T02:58:50.061Z,0
2017-09-15T02:59:30.624Z,0
2017-09-15T03:00:11.185Z,0
2017-09-15T03:00:51.752Z,0
2017-09-15T03:01:32.335Z,0
2017-09-15T03:02:12.909Z,0
2017-09-15T03:02:53.438Z,0
2017-09-15T03:03:33.998Z,0
2017-09-15T03:04:14.562Z,0
2017-09-15T03:04:55.126Z,0
2017-09-15T03:05:35.686Z,0
2017-09-15T03:06:16.265Z,0
2017-09-15T03:06:56.826Z,0
2017-09-15T03:07:37.377Z,0
2017-09-15T03:08:17.947Z,0
2017-09-15T03:08:58.521Z,0
2017-09-15T03:09:39.081Z,0
2017-09-15T03:10:19.650Z,0
2017-09-15T03:11:00.216Z,0
2017-09-15T03:11:40.783Z,0
2017-09-15T03:12:21.339Z,0
2017-09-15T03:13:01.908Z,0
2017-09-15T03:13:42.474Z,0
2017-09-15T03:14:23.048Z,0
2017-09-15T03:15:03.604Z,0
2017-09-15T03:15:44.177Z,0
2017-09-15T03:16:24.748Z,0
2017-09-15T03:17:05.320Z,0
2017-09-15T03:17:45.894Z,0
2017-09-15T03:18:26.449Z,0
2017-09-15T03:19:07.002Z,0
2017-09-15T03:19:47.573Z,0
2017-09-15T03:20:28.145Z,0
2017-09-15T03:21:08.711Z,0
2017-09-15T03:21:49.277Z,0
2017-09-15T03:22:29.846Z,0
2017-09-15T03:23:10.402Z,0
2017-09-15T03:23:50.981Z,0
2017-09-15T03:24:31.550Z,0
2017-09-15T03:25:12.127Z,0
2017-09-15T03:25:52.681Z,0
2017-09-15T03:26:33.254Z,0
2017-09-15T03:27:13.820Z,0
2017-09-15T03:27:54.387Z,0
2017-09-15T03:28:34.948Z,0
2017-09-15T03:29:15.519Z,0
2017-09-15T03:29:56.071Z,0
2017-09-15T03:30:36.650Z,0
2017-09-15T03:31:17.169Z,0
2017-09-15T03:31:57.732Z,0
2017-09-15T03:32:38.293Z,0
2017-09-15T03:33:18.851Z,0
2017-09-15T03:33:59.423Z,0
2017-09-15T03:34:39.989Z,0
2017-09-15T03:35:20.548Z,0
2017-09-15T03:36:01.103Z,0
2017-09-15T03:36:41.680Z,0
2017-09-15T03:37:22.234Z,0
2017-09-15T03:38:02.797Z,0
2017-09-15T03:38:43.371Z,0
2017-09-15T03:39:23.932Z,0
2017-09-15T03:40:04.500Z,0
2017-09-15T03:40:45.064Z,0
2017-09-15T03:41:25.612Z,0
2017-09-15T03:42:06.183Z,0
2017-09-15T03:42:46.744Z,0
2017-09-15T03:43:27.290Z,0
2017-09-15T03:44:07.882Z,0
2017-09-15T03:44:48.442Z,0
2017-09-15T03:45:29.007Z,0
2017-09-15T03:46:09.557Z,0
2017-09-15T03:46:50.144Z,0
2017-09-15T03:47:30.696Z,0
2017-09-15T03:48:11.260Z,0
2017-09-15T03:48:51.820Z,0
2017-09-15T03:49:32.385Z,0
2017-09-15T03:50:12.951Z,0
2017-09-15T03:50:53.509Z,0
2017-09-15T03:51:34.079Z,0
2017-09-15T03:52:14.655Z,0
2017-09-15T03:52:55.214Z,0
2017-09-15T03:53:35.776Z,0
2017-09-15T03:54:16.345Z,0
2017-09-15T03:54:56.903Z,0
2017-09-15T03:55:37.463Z,0
2017-09-15T03:56:18.034Z,0
2017-09-15T03:56:58.599Z,0
2017-09-15T03:57:39.170Z,0
2017-09-15T03:58:19.724Z,0
2017-09-15T03:59:00.271Z,0
2017-09-15T03:59:40.833Z,0
2017-09-15T04:00:21.407Z,0
2017-09-15T04:01:01.968Z,0
2017-09-15T04:01:42.529Z,0
2017-09-15T04:02:23.092Z,0
2017-09-15T04:03:03.653Z,0
2017-09-15T04:03:44.225Z,0
2017-09-15T04:04:24.790Z,0
2017-09-15T04:05:05.356Z,0
2017-09-15T04:05:45.951Z,0
2017-09-15T04:06:26.513Z,0
2017-09-15T04:07:07.067Z,0
2017-09-15T04:07:47.632Z,0
2017-09-15T04:08:28.196Z,0
2017-09-15T04:09:08.745Z,0
2017-09-15T04:09:49.335Z,0
2017-09-15T04:10:29.897Z,0
2017-09-15T04:11:10.468Z,0
2017-09-15T04:11:51.029Z,0
2017-09-15T04:12:31.581Z,0
2017-09-15T04:13:12.136Z,0
2017-09-15T04:13:52.691Z,0
2017-09-15T04:14:33.260Z,0
2017-09-15T04:15:13.870Z,0
2017-09-15T04:15:54.429Z,0
2017-09-15T04:16:35.008Z,0
2017-09-15T04:17:15.578Z,0
2017-09-15T04:17:56.162Z,0
2017-09-15T04:18:36.727Z,0
2017-09-15T04:19:17.298Z,0
2017-09-15T04:19:57.870Z,0
2017-09-15T04:20:38.426Z,0
2017-09-15T04:21:18.991Z,0
2017-09-15T04:21:59.552Z,0
2017-09-15T04:22:40.123Z,0
2017-09-15T04:23:20.692Z,0
2017-09-15T04:24:01.258Z,0
2017-09-15T04:24:41.837Z,0
2017-09-15T04:25:22.409Z,0
2017-09-15T04:26:02.989Z,0
2017-09-15T04:26:43.537Z,0
2017-09-15T04:27:24.096Z,0
2017-09-15T04:28:04.648Z,0
2017-09-15T04:28:45.216Z,0
2017-09-15T04:29:25.764Z,0
2017-09-15T04:30:06.334Z,0
2017-09-15T04:30:46.901Z,0
2017-09-15T04:31:27.469Z,0
2017-09-15T04:32:08.038Z,0
2017-09-15T04:32:48.590Z,0
2017-09-15T04:33:29.164Z,0
2017-09-15T04:34:09.734Z,0
2017-09-15T04:34:50.303Z,0
2017-09-15T04:35:30.880Z,0
2017-09-15T04:36:11.419Z,0
2017-09-15T04:36:51.968Z,0
2017-09-15T04:37:32.546Z,0
2017-09-15T04:38:13.122Z,0
2017-09-15T04:38:53.689Z,0
2017-09-15T04:39:34.269Z,0
2017-09-15T04:40:14.844Z,0
2017-09-15T04:40:55.417Z,0
2017-09-15T04:41:35.956Z,0
2017-09-15T04:42:16.522Z,0
2017-09-15T04:42:57.090Z,0
2017-09-15T04:43:37.659Z,0
2017-09-15T04:44:18.231Z,0
2017-09-15T04:44:58.792Z,0
2017-09-15T04:45:39.357Z,0
2017-09-15T04:46:19.933Z,0
2017-09-15T04:47:00.490Z,0
2017-09-15T04:47:41.048Z,0
2017-09-15T04:48:21.607Z,0
2017-09-15T04:49:02.170Z,0
2017-09-15T04:49:42.736Z,0
2017-09-15T04:50:23.304Z,0
2017-09-15T04:51:03.875Z,0
2017-09-15T04:51:44.435Z,0
2017-09-15T04:52:24.978Z,0
2017-09-15T04:53:05.542Z,0
2017-09-15T04:53:46.111Z,0
2017-09-15T04:54:26.686Z,0
2017-09-15T04:55:07.244Z,0
2017-09-15T04:55:47.814Z,0
2017-09-15T04:56:28.379Z,0
2017-09-15T04:57:08.939Z,0
2017-09-15T04:57:49.502Z,0
2017-09-15T04:58:30.065Z,0
2017-09-15T04:59:10.632Z,0
2017-09-15T04:59:51.207Z,0
2017-09-15T05:00:31.773Z,0
2017-09-15T05:01:12.340Z,5
2017-09-15T05:01:52.911Z,5
2017-09-15T05:02:33.476Z,5
2017-09-15T05:03:14.048Z,5
2017-09-15T05:03:54.605Z,5
2017-09-15T05:04:35.176Z,5
2017-09-15T05:05:15.727Z,5
2017-09-15T05:05:56.316Z,5
2017-09-15T05:06:36.874Z,5
2017-09-15T05:07:17.441Z,5
2017-09-15T05:07:58.009Z,5
2017-09-15T05:08:38.571Z,5
2017-09-15T05:09:19.134Z,5
2017-09-15T05:09:59.704Z,10
2017-09-15T05:10:40.279Z,10
2017-09-15T05:11:20.843Z,10
2017-09-15T05:12:01.408Z,10
2017-09-15T05:12:41.970Z,10
2017-09-15T05:13:22.537Z,10
2017-09-15T05:14:03.117Z,10
2017-09-15T05:14:43.656Z,15
2017-09-15T05:15:24.219Z,15
2017-09-15T05:16:04.778Z,15
2017-09-15T05:16:45.361Z,20
2017-09-15T05:17:25.919Z,20
2017-09-15T05:18:06.486Z,20
2017-09-15T05:18:47.052Z,20
2017-09-15T05:19:27.628Z,20
2017-09-15T05:20:08.192Z,20
2017-09-15T05:20:48.756Z,20
2017-09-15T05:21:29.310Z,20
2017-09-15T05:22:09.888Z,20
2017-09-15T05:22:50.449Z,20
2017-09-15T05:23:31.002Z,25
2017-09-15T05:24:11.565Z,25
2017-09-15T05:24:52.136Z,25
2017-09-15T05:25:32.709Z,25
2017-09-15T05:26:13.273Z,25
2017-09-15T05:26:53.845Z,25
2017-09-15T05:27:34.401Z,25
2017-09-15T05:28:14.967Z,30
2017-09-15T05:28:55.533Z,30
2017-09-15T05:29:36.086Z,30
2017-09-15T05:30:16.633Z,30
2017-09-15T05:30:57.201Z,30
2017-09-15T05:31:37.772Z,30
2017-09-15T05:32:18.330Z,35
2017-09-15T05:32:58.902Z,35
2017-09-15T05:33:39.467Z,35
2017-09-15T05:34:20.040Z,35
2017-09-15T05:35:00.590Z,35
2017-09-15T05:35:41.140Z,35
2017-09-15T05:36:21.709Z,35
2017-09-15T05:37:02.275Z,35
2017-09-15T05:37:42.836Z,35
2017-09-15T05:38:23.408Z,35
2017-09-15T05:39:03.973Z,40
2017-09-15T05:39:44.553Z,40
2017-09-15T05:40:25.109Z,40
2017-09-15T05:41:05.657Z,40
2017-09-15T05:41:46.307Z,45
2017-09-15T05:42:26.861Z,45
2017-09-15T05:43:07.419Z,50
2017-09-15T05:43:47.999Z,50
2017-09-15T05:44:28.542Z,50
2017-09-15T05:45:09.099Z,50
2017-09-15T05:45:49.661Z,50
2017-09-15T05:46:30.254Z,50
2017-09-15T05:47:10.810Z,50
2017-09-15T05:47:51.341Z,55
2017-09-15T05:48:31.937Z,55
2017-09-15T05:49:12.488Z,55
2017-09-15T05:49:53.048Z,55
2017-09-15T05:50:33.580Z,55
2017-09-15T05:51:14.113Z,55
2017-09-15T05:51:54.663Z,55
2017-09-15T05:52:35.233Z,55
2017-09-15T05:53:15.818Z,60
2017-09-15T05:53:56.372Z,60
2017-09-15T05:54:36.962Z,65
2017-09-15T05:55:17.479Z,65
2017-09-15T05:55:58.130Z,65
2017-09-15T05:56:38.612Z,65
2017-09-15T05:57:19.170Z,60
2017-09-15T05:57:59.726Z,60
2017-09-15T05:58:40.281Z,60
2017-09-15T05:59:20.863Z,60
2017-09-15T06:00:01.458Z,60
2017-09-15T06:00:42.060Z,60
2017-09-15T06:01:22.573Z,60
2017-09-15T06:02:03.137Z,60
2017-09-15T06:02:43.708Z,60
2017-09-15T06:03:24.277Z,60
2017-09-15T06:04:04.914Z,65
2017-09-15T06:04:45.478Z,65
2017-09-15T06:05:26.057Z,65
2017-09-15T06:06:06.872Z,65
2017-09-15T06:06:47.434Z,65
2017-09-15T06:07:27.990Z,65
2017-09-15T06:08:08.557Z,65
2017-09-15T06:08:49.119Z,65
2017-09-15T06:09:29.694Z,70
2017-09-15T06:10:10.217Z,70
2017-09-15T06:10:50.759Z,70
2017-09-15T06:11:31.334Z,70
2017-09-15T06:12:11.859Z,75
2017-09-15T06:12:52.420Z,75
2017-09-15T06:13:32.986Z,80
2017-09-15T06:14:13.546Z,75
2017-09-15T06:14:54.125Z,75
2017-09-15T06:15:34.698Z,75
2017-09-15T06:16:15.301Z,80
2017-09-15T06:16:55.834Z,80
2017-09-15T06:17:36.394Z,85
2017-09-15T06:18:16.970Z,90
2017-09-15T06:18:57.528Z,90
2017-09-15T06:19:38.040Z,95
2017-09-15T06:20:18.620Z,95
2017-09-15T06:20:59.189Z,100
2017-09-15T06:21:39.764Z,105
2017-09-15T06:22:21.177Z,110
2017-09-15T06:23:01.781Z,115
2017-09-15T06:23:42.354Z,115
2017-09-15T06:24:22.970Z,115
2017-09-15T06:25:03.454Z,120
2017-09-15T06:25:44.027Z,125
2017-09-15T06:26:24.633Z,125
2017-09-15T06:27:05.155Z,130
2017-09-15T06:27:45.696Z,135
2017-09-15T06:28:26.250Z,135
2017-09-15T06:29:06.800Z,135
2017-09-15T06:29:47.344Z,135
2017-09-15T06:30:27.897Z,135
2017-09-15T06:31:08.453Z,130
2017-09-15T06:31:49.002Z,135
2017-09-15T06:32:29.584Z,135
2017-09-15T06:33:10.169Z,135
2017-09-15T06:33:50.898Z,135
2017-09-15T06:34:31.408Z,135
2017-09-15T06:35:11.964Z,135
2017-09-15T06:35:52.540Z,135
2017-09-15T06:36:33.103Z,135
2017-09-15T06:37:13.685Z,135
2017-09-15T06:37:54.217Z,140
2017-09-15T06:38:34.776Z,145
2017-09-15T06:39:15.362Z,145
2017-09-15T06:39:55.913Z,145
2017-09-15T06:40:36.501Z,145
2017-09-15T06:41:17.060Z,145
2017-09-15T06:41:57.644Z,140
2017-09-15T06:42:38.209Z,140
2017-09-15T06:43:18.748Z,140
2017-09-15T06:43:59.298Z,145
2017-09-15T06:44:39.873Z,145
2017-09-15T06:45:20.461Z,145
2017-09-15T06:46:01.024Z,145
2017-09-15T06:46:41.605Z,145
2017-09-15T06:47:22.195Z,145
2017-09-15T06:48:02.790Z,145
2017-09-15T06:48:43.292Z,145
2017-09-15T06:49:23.845Z,145
2017-09-15T06:50:04.387Z,145
2017-09-15T06:50:44.967Z,145
2017-09-15T06:51:25.533Z,145
2017-09-15T06:52:06.084Z,150
2017-09-15T06:52:46.640Z,155
2017-09-15T06:53:27.208Z,155
2017-09-15T06:54:07.775Z,155
2017-09-15T06:54:48.314Z,155
2017-09-15T06:55:28.878Z,160
2017-09-15T06:56:09.430Z,155
2017-09-15T06:56:49.992Z,160
2017-09-15T06:57:30.543Z,155
2017-09-15T06:58:11.094Z,155
2017-09-15T06:58:51.649Z,155
2017-09-15T06:59:32.240Z,200
2017-09-15T07:00:12.792Z,200
2017-09-15T07:00:53.397Z,190
2017-09-15T07:01:33.924Z,185
2017-09-15T07:02:14.468Z,180
2017-09-15T07:02:55.039Z,170
2017-09-15T07:03:35.593Z,145
2017-09-15T07:04:16.143Z,145
2017-09-15T07:04:56.710Z,140
2017-09-15T07:05:37.277Z,140
2017-09-15T07:06:17.834Z,150
2017-09-15T07:06:58.376Z,155
2017-09-15T07:07:38.953Z,165
2017-09-15T07:08:19.485Z,170
2017-09-15T07:09:00.037Z,170
2017-09-15T07:09:40.612Z,190
2017-09-15T07:10:21.141Z,190
2017-09-15T07:11:01.795Z,205
2017-09-15T07:11:42.398Z,225
2017-09-15T07:12:22.927Z,225
2017-09-15T07:13:03.438Z,220
2017-09-15T07:13:44.013Z,200
2017-09-15T07:14:24.583Z,200
2017-09-15T07:15:05.152Z,180
2017-09-15T07:15:45.694Z,190
2017-09-15T07:16:26.456Z,185
2017-09-15T07:17:07.129Z,190
2017-09-15T07:17:47.702Z,210
2017-09-15T07:18:28.298Z,195
2017-09-15T07:19:08.782Z,170
2017-09-15T07:19:49.358Z,160
2017-09-15T07:20:29.920Z,135
2017-09-15T07:21:10.473Z,135
2017-09-15T07:21:51.031Z,140
2017-09-15T07:22:31.610Z,145
2017-09-15T07:23:12.173Z,150
2017-09-15T07:23:52.736Z,160
2017-09-15T07:24:33.299Z,155
2017-09-15T07:25:13.841Z,155
2017-09-15T07:25:54.397Z,160
2017-09-15T07:26:34.973Z,150
2017-09-15T07:27:15.541Z,135
2017-09-15T07:27:56.092Z,130
2017-09-15T07:28:36.670Z,130
2017-09-15T07:29:17.231Z,135
2017-09-15T07:29:57.805Z,145
2017-09-15T07:30:38.376Z,140
2017-09-15T07:31:18.931Z,155
2017-09-15T07:31:59.513Z,160
2017-09-15T07:32:40.079Z,165
2017-09-15T07:33:20.652Z,165
2017-09-15T07:34:01.212Z,165
2017-09-15T07:34:41.768Z,165
2017-09-15T07:35:22.332Z,170
2017-09-15T07:36:02.898Z,165
2017-09-15T07:36:43.475Z,180
2017-09-15T07:37:24.045Z,200
2017-09-15T07:38:04.614Z,210
2017-09-15T07:38:45.180Z,220
2017-09-15T07:39:25.736Z,220
2017-09-15T07:40:06.291Z,220
2017-09-15T07:40:46.857Z,220
2017-09-15T07:41:27.446Z,220
2017-09-15T07:42:08.006Z,220
2017-09-15T07:42:48.557Z,210
2017-09-15T07:43:29.106Z,220
2017-09-15T07:44:09.682Z,195
2017-09-15T07:44:50.250Z,195
2017-09-15T07:45:30.831Z,190
2017-09-15T07:46:11.383Z,190
2017-09-15T07:46:51.958Z,190
2017-09-15T07:47:32.529Z,195
2017-09-15T07:48:13.079Z,195
2017-09-15T07:48:53.638Z,195
2017-09-15T07:49:34.206Z,200
2017-09-15T07:50:14.770Z,205
2017-09-15T07:50:55.351Z,210
2017-09-15T07:51:35.914Z,205
2017-09-15T07:52:16.477Z,205
2017-09-15T07:52:57.053Z,200
2017-09-15T07:53:37.609Z,200
2017-09-15T07:54:18.173Z,195
2017-09-15T07:54:58.726Z,195
2017-09-15T07:55:39.299Z,200
2017-09-15T07:56:19.869Z,200
2017-09-15T07:57:00.424Z,190
2017-09-15T07:57:40.971Z,190
2017-09-15T07:58:21.518Z,195
2017-09-15T07:59:02.076Z,200
2017-09-15T07:59:42.634Z,205
2017-09-15T08:00:23.188Z,195
2017-09-15T08:01:03.767Z,190
2017-09-15T08:01:44.339Z,190
2017-09-15T08:02:24.911Z,185
2017-09-15T08:03:05.483Z,185
2017-09-15T08:03:46.047Z,185
2017-09-15T08:04:26.614Z,185
2017-09-15T08:05:07.190Z,185
2017-09-15T08:05:47.757Z,185
2017-09-15T08:06:28.337Z,185
2017-09-15T08:07:08.915Z,185
2017-09-15T08:07:49.461Z,180
2017-09-15T08:08:30.000Z,175
2017-09-15T08:09:10.567Z,170
2017-09-15T08:09:51.126Z,165
2017-09-15T08:10:31.694Z,165
2017-09-15T08:11:12.269Z,165
2017-09-15T08:11:52.821Z,165
2017-09-15T08:12:33.394Z,160
2017-09-15T08:13:13.959Z,160
2017-09-15T08:13:54.525Z,150
2017-09-15T08:14:35.115Z,155
2017-09-15T08:15:15.677Z,165
2017-09-15T08:15:56.239Z,175
2017-09-15T08:16:36.808Z,175
2017-09-15T08:17:17.371Z,160
2017-09-15T08:17:58.006Z,165
2017-09-15T08:18:38.596Z,155
2017-09-15T08:19:19.174Z,150
2017-09-15T08:19:59.751Z,150
2017-09-15T08:20:40.320Z,145
2017-09-15T08:21:20.889Z,140
2017-09-15T08:22:01.441Z,140
2017-09-15T08:22:42.014Z,135
2017-09-15T08:23:22.590Z,135
2017-09-15T08:24:03.150Z,130
2017-09-15T08:24:43.720Z,135
2017-09-15T08:25:24.283Z,135
2017-09-15T08:26:04.851Z,135
2017-09-15T08:26:45.412Z,140
2017-09-15T08:27:25.988Z,150
2017-09-15T08:28:06.563Z,160
2017-09-15T08:28:47.134Z,155
2017-09-15T08:29:27.696Z,155
2017-09-15T08:30:08.263Z,150
2017-09-15T08:30:48.824Z,145
2017-09-15T08:31:29.414Z,140
2017-09-15T08:32:09.987Z,150
2017-09-15T08:32:50.559Z,150
2017-09-15T08:33:31.115Z,150
2017-09-15T08:34:11.702Z,145
2017-09-15T08:34:52.271Z,150
2017-09-15T08:35:32.838Z,155
2017-09-15T08:36:13.405Z,155
2017-09-15T08:36:53.969Z,150
2017-09-15T08:37:34.528Z,150
2017-09-15T08:38:15.100Z,145
2017-09-15T08:38:55.664Z,155
2017-09-15T08:39:36.230Z,155
2017-09-15T08:40:16.792Z,160
2017-09-15T08:40:57.356Z,160
2017-09-15T08:41:37.927Z,165
2017-09-15T08:42:18.487Z,165
2017-09-15T08:42:59.058Z,185
2017-09-15T08:43:39.601Z,185
2017-09-15T08:44:20.175Z,195
2017-09-15T08:45:00.744Z,210
2017-09-15T08:45:41.311Z,215
2017-09-15T08:46:21.875Z,220
2017-09-15T08:47:02.433Z,220
2017-09-15T08:47:43.005Z,215
2017-09-15T08:48:23.568Z,210
2017-09-15T08:49:04.127Z,195
2017-09-15T08:49:44.704Z,190
2017-09-15T08:50:25.274Z,210
2017-09-15T08:51:05.845Z,195
2017-09-15T08:51:46.365Z,185
2017-09-15T08:52:26.914Z,190
2017-09-15T08:53:07.470Z,180
2017-09-15T08:53:48.030Z,185
2017-09-15T08:54:28.580Z,185
2017-09-15T08:55:09.142Z,185
2017-09-15T08:55:49.686Z,185
2017-09-15T08:56:30.252Z,180
2017-09-15T08:57:10.801Z,185
2017-09-15T08:57:51.364Z,185
2017-09-15T08:58:31.913Z,190
2017-09-15T08:59:12.502Z,190
2017-09-15T08:59:53.008Z,195
2017-09-15T09:00:33.567Z,195
2017-09-15T09:01:14.112Z,205
2017-09-15T09:01:54.669Z,195
2017-09-15T09:02:35.238Z,185
2017-09-15T09:03:15.796Z,175
2017-09-15T09:03:56.351Z,175
2017-09-15T09:04:36.969Z,175
2017-09-15T09:05:17.454Z,180
2017-09-15T09:05:57.997Z,175
2017-09-15T09:06:38.567Z,170
2017-09-15T09:07:19.128Z,170
2017-09-15T09:07:59.703Z,170
2017-09-15T09:08:40.267Z,170
2017-09-15T09:09:20.821Z,170
2017-09-15T09:10:01.402Z,170
2017-09-15T09:10:41.966Z,170
2017-09-15T09:11:22.521Z,165
2017-09-15T09:12:03.080Z,165
2017-09-15T09:12:43.656Z,160
2017-09-15T09:13:24.200Z,160
2017-09-15T09:14:04.776Z,165
2017-09-15T09:14:45.334Z,160
2017-09-15T09:15:25.913Z,160
2017-09-15T09:16:06.486Z,160
2017-09-15T09:16:47.048Z,160
2017-09-15T09:17:27.613Z,155
2017-09-15T09:18:08.190Z,155
2017-09-15T09:18:48.747Z,155
2017-09-15T09:19:29.299Z,155
2017-09-15T09:20:09.899Z,155
2017-09-15T09:20:50.462Z,150
2017-09-15T09:21:31.032Z,150
2017-09-15T09:22:11.612Z,150
2017-09-15T09:22:52.169Z,150
2017-09-15T09:23:32.723Z,150
2017-09-15T09:24:13.276Z,150
2017-09-15T09:24:53.828Z,145
2017-09-15T09:25:34.386Z,150
2017-09-15T09:26:15.194Z,155
2017-09-15T09:26:55.792Z,155
2017-09-15T09:27:36.356Z,155
2017-09-15T09:28:16.924Z,155
2017-09-15T09:28:57.453Z,155
2017-09-15T09:29:38.020Z,155
2017-09-15T09:30:18.571Z,145
2017-09-15T09:30:59.202Z,145
2017-09-15T09:31:39.786Z,140
2017-09-15T09:32:20.301Z,130
2017-09-15T09:33:00.867Z,130
2017-09-15T09:33:41.404Z,135
2017-09-15T09:34:21.999Z,135
2017-09-15T09:35:02.558Z,135
2017-09-15T09:35:43.151Z,140
2017-09-15T09:36:23.711Z,135
2017-09-15T09:37:04.321Z,135
2017-09-15T09:37:44.829Z,145
2017-09-15T09:38:25.398Z,135
2017-09-15T09:39:05.973Z,145
2017-09-15T09:39:46.546Z,145
2017-09-15T09:40:27.064Z,145
2017-09-15T09:41:07.659Z,145
2017-09-15T09:41:48.183Z,150
2017-09-15T09:42:28.768Z,150